Terminal Aerodrome Forecast
Issued by NWS Chicago, IL

Home | Current Version | Previous Version | Text Only | Print | Product List | Glossary On
Versions: 1 2 3 4 5 6 7 8 9 10 11 12 13 14 15 16 17 18 19 20 21 22 23 24 25
749
FTUS43 KLOT 232100 AAA
TAFRFD
TAF AMD
KRFD 232100Z 2321/2418 16014G22KT P6SM VCSH SCT030 OVC035
     FM240100 16013KT P6SM SCT050 BKN150
     FM240500 19013KT P6SM BKN150 WS020/21050KT
     FM241400 20013G20KT P6SM BKN150=

USA.gov is the U.S. government's official web portal to all federal, state and local government web resources and services.